createdAt,value
2019-06-07T00:01:28.051Z,14.11
2019-06-07T00:03:55.148Z,14.15
2019-06-07T00:06:25.410Z,14.13
2019-06-07T00:08:51.231Z,14.08
2019-06-07T00:11:20.524Z,14.19
2019-06-07T00:13:47.281Z,14.18
2019-06-07T00:16:19.086Z,14.17
2019-06-07T00:18:43.332Z,14.19
2019-06-07T00:21:11.785Z,14.11
2019-06-07T00:23:39.002Z,14.17
2019-06-07T00:26:06.111Z,14.21
2019-06-07T00:28:33.208Z,14.09
2019-06-07T00:31:00.300Z,14.09
2019-06-07T00:33:27.440Z,14.20
2019-06-07T00:35:54.517Z,14.15
2019-06-07T00:38:22.056Z,14.20
2019-06-07T00:40:49.177Z,14.20
2019-06-07T00:43:19.165Z,14.15
2019-06-07T00:45:45.266Z,14.08
2019-06-07T00:48:19.543Z,13.99
2019-06-07T00:50:41.336Z,14.01
2019-06-07T00:53:16.812Z,14.01
2019-06-07T00:55:37.394Z,14.04
2019-06-07T00:58:04.596Z,14.00
2019-06-07T01:00:31.660Z,14.00
2019-06-07T01:02:58.770Z,13.98
2019-06-07T01:05:31.051Z,13.83
2019-06-07T01:07:54.856Z,13.83
2019-06-07T01:10:51.536Z,13.88
2019-06-07T01:12:53.921Z,13.88
2019-06-07T01:15:27.575Z,13.80
2019-06-07T01:18:32.892Z,13.80
2019-06-07T01:20:22.790Z,13.74
2019-06-07T01:22:49.647Z,13.58
2019-06-07T01:25:18.321Z,13.61
2019-06-07T01:27:45.713Z,13.52
2019-06-07T01:30:13.405Z,13.39
2019-06-07T01:32:40.488Z,13.39
2019-06-07T01:35:07.949Z,13.41
2019-06-07T01:37:35.016Z,13.40
2019-06-07T01:40:02.207Z,13.41
2019-06-07T01:42:30.978Z,13.41
2019-06-07T01:44:58.255Z,13.39
2019-06-07T01:47:28.756Z,13.34
2019-06-07T01:49:54.316Z,13.24
2019-06-07T01:52:23.492Z,13.24
2019-06-07T01:54:57.803Z,13.16
2019-06-07T01:57:36.710Z,13.05
2019-06-07T01:59:48.321Z,13.00
2019-06-07T02:02:15.372Z,12.97
2019-06-07T02:04:42.514Z,12.92
2019-06-07T02:07:09.606Z,12.86
2019-06-07T02:09:36.669Z,12.83
2019-06-07T02:12:24.765Z,12.82
2019-06-07T02:14:39.114Z,12.82
2019-06-07T02:17:06.168Z,12.82
2019-06-07T02:19:33.661Z,12.79
2019-06-07T02:22:00.930Z,12.71
2019-06-07T02:24:29.642Z,12.67
2019-06-07T02:26:57.008Z,12.66
2019-06-07T02:29:25.443Z,12.64
2019-06-07T02:31:53.032Z,12.69
2019-06-07T02:34:21.518Z,13.25
2019-06-07T02:36:48.647Z,13.76
2019-06-07T02:39:15.971Z,14.09
2019-06-07T02:41:43.318Z,14.32
2019-06-07T02:44:10.464Z,14.41
2019-06-07T02:46:46.768Z,14.70
2019-06-07T02:49:06.514Z,14.83
2019-06-07T02:51:41.131Z,14.72
2019-06-07T02:54:02.553Z,14.69
2019-06-07T02:56:52.476Z,14.63
2019-06-07T02:58:58.597Z,14.71
2019-06-07T03:01:28.422Z,14.78
2019-06-07T03:03:54.838Z,14.94
2019-06-07T03:06:22.083Z,14.96
2019-06-07T03:08:49.298Z,14.66
2019-06-07T03:11:16.363Z,14.30
2019-06-07T03:13:46.228Z,13.96
2019-06-07T03:16:17.596Z,13.69
2019-06-07T03:18:52.786Z,13.49
2019-06-07T03:21:21.330Z,13.14
2019-06-07T03:23:51.376Z,13.00
2019-06-07T03:26:20.250Z,12.91
2019-06-07T03:28:47.284Z,12.91
2019-06-07T03:31:14.334Z,12.77
2019-06-07T03:33:44.625Z,12.56
2019-06-07T03:36:23.204Z,12.52
2019-06-07T03:38:39.831Z,12.45
2019-06-07T03:41:07.229Z,12.37
2019-06-07T03:43:36.656Z,12.31
2019-06-07T03:46:03.227Z,12.28
2019-06-07T03:48:32.280Z,12.24
2019-06-07T03:51:04.465Z,12.19
2019-06-07T03:53:30.490Z,12.03
2019-06-07T03:55:57.178Z,11.88
2019-06-07T03:58:36.646Z,11.87
2019-06-07T04:00:53.224Z,11.91
2019-06-07T04:03:33.570Z,11.94
2019-06-07T04:05:49.690Z,11.95
2019-06-07T04:08:16.906Z,12.04
2019-06-07T04:10:58.461Z,12.13
2019-06-07T04:13:12.903Z,12.21
2019-06-07T04:15:41.402Z,12.30
2019-06-07T04:18:08.653Z,12.33
2019-06-07T04:20:38.114Z,12.41
2019-06-07T04:23:25.051Z,12.44
2019-06-07T04:25:36.802Z,12.50
2019-06-07T04:28:02.664Z,12.56
2019-06-07T04:30:41.995Z,12.54
2019-06-07T04:33:09.824Z,12.58
2019-06-07T04:35:58.450Z,12.64
2019-06-07T04:38:25.925Z,12.73
2019-06-07T04:40:53.405Z,12.86
2019-06-07T04:43:20.498Z,12.95
2019-06-07T04:45:51.070Z,13.06
2019-06-07T04:48:19.895Z,13.17
2019-06-07T04:51:08.276Z,13.32
2019-06-07T04:53:38.662Z,13.42
2019-06-07T04:56:26.425Z,13.66
2019-06-07T04:58:53.504Z,13.66
2019-06-07T05:01:27.353Z,13.73
2019-06-07T05:03:55.946Z,13.96
2019-06-07T05:06:36.300Z,13.96
2019-06-07T05:09:09.836Z,14.26
2019-06-07T05:11:39.296Z,14.26
2019-06-07T05:14:12.132Z,14.35
2019-06-07T05:16:43.690Z,14.74
2019-06-07T05:19:14.651Z,15.15
2019-06-07T05:22:01.562Z,15.58
2019-06-07T05:24:17.014Z,15.82
2019-06-07T05:26:44.145Z,15.76
2019-06-07T05:29:11.151Z,15.93
2019-06-07T05:31:41.824Z,16.22
2019-06-07T05:34:13.498Z,16.22
2019-06-07T05:36:44.289Z,16.25
2019-06-07T05:39:15.829Z,16.48
2019-06-07T05:41:44.418Z,16.70
2019-06-07T05:44:17.913Z,16.77
2019-06-07T05:46:47.145Z,16.78
2019-06-07T05:49:23.882Z,16.80
2019-06-07T05:51:50.935Z,16.76
2019-06-07T05:54:18.003Z,16.83
2019-06-07T05:56:45.505Z,16.72
2019-06-07T05:59:20.165Z,16.69
2019-06-07T06:01:58.914Z,16.85
2019-06-07T06:04:22.219Z,16.95
2019-06-07T06:06:49.269Z,17.02
2019-06-07T06:09:16.339Z,17.10
2019-06-07T06:11:58.624Z,17.11
2019-06-07T06:14:14.631Z,17.16
2019-06-07T06:16:44.406Z,17.09
2019-06-07T06:19:10.687Z,16.92
2019-06-07T06:21:38.529Z,16.78
2019-06-07T06:24:05.681Z,16.55
2019-06-07T06:26:32.804Z,16.62
2019-06-07T06:28:59.829Z,16.62
2019-06-07T06:31:26.905Z,16.58
2019-06-07T06:33:53.967Z,16.53
2019-06-07T06:36:21.755Z,16.47
2019-06-07T06:38:49.842Z,16.35
2019-06-07T06:41:18.072Z,16.22
2019-06-07T06:43:49.391Z,16.23
2019-06-07T06:46:14.126Z,16.28
2019-06-07T06:48:47.354Z,16.31
2019-06-07T06:51:10.133Z,16.34
2019-06-07T06:53:37.195Z,16.37
2019-06-07T06:56:04.239Z,16.44
2019-06-07T06:59:18.867Z,16.48
2019-06-07T07:01:06.513Z,16.51
2019-06-07T07:03:57.343Z,16.59
2019-06-07T07:06:24.290Z,16.64
2019-06-07T07:08:27.263Z,16.71
2019-06-07T07:10:54.983Z,16.77
2019-06-07T07:13:22.443Z,16.85
2019-06-07T07:15:55.120Z,16.94
2019-06-07T07:18:18.602Z,17.01
2019-06-07T07:20:47.711Z,17.07
2019-06-07T07:23:14.733Z,17.17
2019-06-07T07:25:43.507Z,17.23
2019-06-07T07:28:10.777Z,17.30
2019-06-07T07:30:47.300Z,17.28
2019-06-07T07:33:15.444Z,17.42
2019-06-07T07:36:07.841Z,17.55
2019-06-07T07:38:11.657Z,17.66
2019-06-07T07:43:07.837Z,17.79
2019-06-07T07:45:34.949Z,17.89
2019-06-07T07:50:31.085Z,17.99
2019-06-07T07:53:00.659Z,18.16
2019-06-07T07:55:27.198Z,18.22
2019-06-07T07:58:01.103Z,18.30
2019-06-07T08:01:11.406Z,18.35
2019-06-07T08:03:38.565Z,18.44
2019-06-07T08:06:05.690Z,18.59
2019-06-07T08:08:32.777Z,18.70
2019-06-07T08:11:02.119Z,18.79
2019-06-07T08:13:28.839Z,18.87
2019-06-07T08:15:59.367Z,18.89
2019-06-07T08:18:24.924Z,18.99
2019-06-07T08:21:08.757Z,19.10
2019-06-07T08:23:21.010Z,19.21
2019-06-07T08:25:49.136Z,19.28
2019-06-07T08:28:16.357Z,19.32
2019-06-07T08:30:50.510Z,19.40
2019-06-07T08:33:26.096Z,19.43
2019-06-07T08:36:06.161Z,19.52
2019-06-07T08:38:34.147Z,19.65
2019-06-07T08:40:39.385Z,19.76
2019-06-07T08:43:20.865Z,19.88
2019-06-07T08:45:35.507Z,19.97
2019-06-07T08:48:12.971Z,20.07
2019-06-07T08:50:31.718Z,20.19
2019-06-07T08:53:05.111Z,20.25
2019-06-07T08:55:27.811Z,20.41
2019-06-07T08:58:02.246Z,20.54
2019-06-07T09:02:54.977Z,20.71
2019-06-07T09:05:21.910Z,20.79
2019-06-07T09:08:07.223Z,20.89
2019-06-07T09:10:18.022Z,20.92
2019-06-07T09:12:45.107Z,21.02
2019-06-07T09:15:21.408Z,21.03
2019-06-07T09:18:29.565Z,21.13
2019-06-07T09:20:35.101Z,21.20
2019-06-07T09:22:41.594Z,21.28
2019-06-07T09:25:21.173Z,21.41
2019-06-07T09:27:42.080Z,21.56
2019-06-07T09:30:16.568Z,21.63
2019-06-07T09:32:38.520Z,21.69
2019-06-07T09:35:12.617Z,21.85
2019-06-07T09:40:19.655Z,22.18
2019-06-07T09:42:33.012Z,22.48
2019-06-07T09:45:01.188Z,22.61
2019-06-07T09:47:32.544Z,22.74
2019-06-07T09:50:02.364Z,22.84
2019-06-07T09:52:27.069Z,22.98
2019-06-07T09:55:23.169Z,23.18
2019-06-07T09:57:29.153Z,23.35
2019-06-07T09:59:56.319Z,23.74
2019-06-07T10:02:31.491Z,24.01
2019-06-07T10:05:01.526Z,24.32
2019-06-07T10:07:33.979Z,24.52
2019-06-07T10:12:36.106Z,25.00
2019-06-07T10:15:15.750Z,25.21
2019-06-07T10:17:42.894Z,25.39
2019-06-07T10:20:10.140Z,25.42
2019-06-07T10:22:37.352Z,25.68
2019-06-07T10:25:06.319Z,25.90
2019-06-07T10:30:41.692Z,26.46
2019-06-07T10:33:08.756Z,26.72
2019-06-07T10:35:35.828Z,26.86
2019-06-07T10:38:02.941Z,27.09
2019-06-07T10:40:30.004Z,27.28
2019-06-07T10:42:57.082Z,27.26
2019-06-07T10:45:24.135Z,27.45
2019-06-07T10:47:51.216Z,27.72
2019-06-07T10:50:18.292Z,27.89
2019-06-07T10:52:45.378Z,28.07
2019-06-07T10:55:31.921Z,28.01
2019-06-07T10:57:59.012Z,27.97
2019-06-07T11:00:26.232Z,28.30
2019-06-07T11:02:55.273Z,28.50
2019-06-07T11:05:32.142Z,28.75
2019-06-07T11:08:00.713Z,29.06
2019-06-07T11:10:34.350Z,29.17
2019-06-07T11:13:01.429Z,29.19
2019-06-07T11:15:28.544Z,29.33
2019-06-07T11:17:55.715Z,29.38
2019-06-07T11:20:22.840Z,29.51
2019-06-07T11:22:49.913Z,29.77
2019-06-07T11:25:16.938Z,30.02
2019-06-07T11:27:44.050Z,30.10
2019-06-07T11:30:12.554Z,30.33
2019-06-07T11:32:39.782Z,30.29
2019-06-07T11:35:08.772Z,30.24
2019-06-07T11:37:35.859Z,30.45
2019-06-07T11:40:03.281Z,30.54
2019-06-07T11:42:30.350Z,30.78
2019-06-07T11:44:57.516Z,31.05
2019-06-07T11:47:24.605Z,31.13
2019-06-07T11:49:51.679Z,31.33
2019-06-07T11:52:18.747Z,31.73
2019-06-07T11:54:48.142Z,31.84
2019-06-07T11:57:15.191Z,31.94
2019-06-07T11:59:42.310Z,32.07
2019-06-07T12:02:09.386Z,32.08
2019-06-07T12:04:36.457Z,32.17
2019-06-07T12:07:03.623Z,32.61
2019-06-07T12:09:30.774Z,32.78
2019-06-07T12:11:57.855Z,32.72
2019-06-07T12:14:24.914Z,32.72
2019-06-07T12:16:51.992Z,33.02
2019-06-07T12:19:19.807Z,33.10
2019-06-07T12:21:46.965Z,33.32
2019-06-07T12:24:14.247Z,33.46
2019-06-07T12:26:41.401Z,33.56
2019-06-07T12:29:08.453Z,33.66
2019-06-07T12:31:35.548Z,33.39
2019-06-07T12:34:02.663Z,33.35
2019-06-07T12:36:29.763Z,33.42
2019-06-07T12:38:56.843Z,33.48
2019-06-07T12:41:24.209Z,33.45
2019-06-07T12:43:51.272Z,33.91
2019-06-07T12:46:23.067Z,34.01
2019-06-07T12:48:47.350Z,34.14
2019-06-07T12:51:15.190Z,34.40
2019-06-07T12:53:42.268Z,34.45
2019-06-07T12:56:09.334Z,34.29
2019-06-07T12:58:39.475Z,34.27
2019-06-07T13:01:05.392Z,34.45
2019-06-07T13:03:32.505Z,34.71
2019-06-07T13:06:00.362Z,35.06
2019-06-07T13:08:28.191Z,35.07
2019-06-07T13:10:55.513Z,35.19
2019-06-07T13:13:23.129Z,35.21
2019-06-07T13:15:58.184Z,35.33
2019-06-07T13:18:25.368Z,35.51
2019-06-07T13:20:55.340Z,35.25
2019-06-07T13:23:31.334Z,35.01
2019-06-07T13:25:58.393Z,35.15
2019-06-07T13:28:25.460Z,35.34
2019-06-07T13:30:52.577Z,35.50
2019-06-07T13:33:21.502Z,35.63
2019-06-07T13:35:55.049Z,35.31
2019-06-07T13:38:41.685Z,35.65
2019-06-07T13:41:08.854Z,35.67
2019-06-07T13:43:35.924Z,36.11
2019-06-07T13:46:03.016Z,36.10
2019-06-07T13:48:30.097Z,36.09
2019-06-07T13:50:57.195Z,36.17
2019-06-07T13:53:25.075Z,36.09
2019-06-07T13:55:59.662Z,36.34
2019-06-07T13:58:26.748Z,36.34
2019-06-07T14:00:53.950Z,36.33
2019-06-07T14:03:24.260Z,36.38
2019-06-07T14:05:50.035Z,36.36
2019-06-07T14:08:17.075Z,36.33
2019-06-07T14:10:44.156Z,36.04
2019-06-07T14:13:11.252Z,35.72
2019-06-07T14:15:38.401Z,35.58
2019-06-07T14:18:05.559Z,35.69
2019-06-07T14:20:34.586Z,35.84
2019-06-07T14:23:01.639Z,36.09
2019-06-07T14:25:29.352Z,36.28
2019-06-07T14:27:56.542Z,36.66
2019-06-07T14:32:51.320Z,36.61
2019-06-07T14:35:18.506Z,36.40
2019-06-07T14:37:45.601Z,36.59
2019-06-07T14:40:13.813Z,36.68
2019-06-07T14:42:40.965Z,36.83
2019-06-07T14:45:08.563Z,36.83
2019-06-07T14:47:35.635Z,36.26
2019-06-07T14:50:04.146Z,36.31
2019-06-07T14:52:33.295Z,36.15
2019-06-07T14:55:00.247Z,36.26
2019-06-07T14:57:27.341Z,36.32
2019-06-07T14:59:54.490Z,35.98
2019-06-07T15:02:21.620Z,36.14
2019-06-07T15:04:48.722Z,36.13
2019-06-07T15:07:15.829Z,36.37
2019-06-07T15:09:42.970Z,36.22
2019-06-07T15:12:24.118Z,35.86
2019-06-07T15:14:39.138Z,35.84
2019-06-07T15:17:06.226Z,35.44
2019-06-07T15:19:34.558Z,36.06
2019-06-07T15:22:02.334Z,36.18
2019-06-07T15:24:33.667Z,36.06
2019-06-07T15:26:58.401Z,36.30
2019-06-07T15:29:25.497Z,35.65
2019-06-07T15:31:52.600Z,35.62
2019-06-07T15:34:19.684Z,35.99
2019-06-07T15:36:46.802Z,35.64
2019-06-07T15:39:13.913Z,35.65
2019-06-07T15:41:40.996Z,35.55
2019-06-07T15:44:08.082Z,35.41
2019-06-07T15:46:35.656Z,35.44
2019-06-07T15:49:02.868Z,34.84
2019-06-07T15:51:30.654Z,34.89
2019-06-07T15:53:57.784Z,34.47
2019-06-07T15:56:24.871Z,34.91
2019-06-07T15:58:51.948Z,34.78
2019-06-07T16:01:19.075Z,34.73
2019-06-07T16:03:46.167Z,34.88
2019-06-07T16:06:13.278Z,34.68
2019-06-07T16:08:40.548Z,34.48
2019-06-07T16:11:07.702Z,34.54
2019-06-07T16:13:34.824Z,34.59
2019-06-07T16:16:01.943Z,34.61
2019-06-07T16:18:29.007Z,34.07
2019-06-07T16:20:56.111Z,33.80
2019-06-07T16:23:23.184Z,33.81
2019-06-07T16:25:50.265Z,33.77
2019-06-07T16:28:17.339Z,33.53
2019-06-07T16:30:44.817Z,33.75
2019-06-07T16:33:11.996Z,33.96
2019-06-07T16:35:39.142Z,34.00
2019-06-07T16:38:06.198Z,34.06
2019-06-07T16:40:33.413Z,33.79
2019-06-07T16:43:16.419Z,34.01
2019-06-07T16:45:29.488Z,34.03
2019-06-07T16:47:56.573Z,33.63
2019-06-07T16:50:23.713Z,33.27
2019-06-07T16:52:50.839Z,32.95
2019-06-07T16:55:18.040Z,32.66
2019-06-07T16:57:45.317Z,32.64
2019-06-07T17:00:13.965Z,32.30
2019-06-07T17:02:42.271Z,32.14
2019-06-07T17:05:09.623Z,31.80
2019-06-07T17:07:38.163Z,31.77
2019-06-07T17:10:08.133Z,31.76
2019-06-07T17:12:35.406Z,31.58
2019-06-07T17:15:02.766Z,31.37
2019-06-07T17:17:30.331Z,31.15
2019-06-07T17:19:57.428Z,30.98
2019-06-07T17:22:24.515Z,30.71
2019-06-07T17:24:51.621Z,30.51
2019-06-07T17:27:18.705Z,30.28
2019-06-07T17:29:45.872Z,30.06
2019-06-07T17:32:15.959Z,29.77
2019-06-07T17:34:42.057Z,29.73
2019-06-07T17:37:09.157Z,29.48
2019-06-07T17:39:36.256Z,29.21
2019-06-07T17:42:03.463Z,29.04
2019-06-07T17:44:30.596Z,28.94
2019-06-07T17:46:57.691Z,28.71
2019-06-07T17:49:24.783Z,28.71
2019-06-07T17:51:52.326Z,28.52
2019-06-07T17:54:27.377Z,28.30
2019-06-07T17:56:55.987Z,28.14
2019-06-07T17:59:23.259Z,28.11
2019-06-07T18:02:10.169Z,28.13
2019-06-07T18:04:19.370Z,28.09
2019-06-07T18:06:47.328Z,28.11
2019-06-07T18:12:39.644Z,27.69
2019-06-07T18:15:52.920Z,27.60
2019-06-07T18:18:42.454Z,27.50
2019-06-07T18:21:09.539Z,27.05
2019-06-07T18:23:36.613Z,26.89
2019-06-07T18:26:03.852Z,26.81
2019-06-07T18:28:30.947Z,26.80
2019-06-07T18:30:58.959Z,26.68
2019-06-07T18:33:36.844Z,26.51
2019-06-07T18:36:04.327Z,26.42
2019-06-07T18:38:31.415Z,26.35
2019-06-07T18:40:59.575Z,26.23
2019-06-07T18:43:26.779Z,26.10
2019-06-07T18:45:53.842Z,25.97
2019-06-07T18:48:20.906Z,25.89
2019-06-07T18:50:48.635Z,25.70
2019-06-07T18:53:35.878Z,25.42
2019-06-07T18:56:03.082Z,25.25
2019-06-07T18:58:30.141Z,25.12
2019-06-07T19:00:57.604Z,24.99
2019-06-07T19:03:24.748Z,24.92
2019-06-07T19:05:52.176Z,24.83
2019-06-07T19:08:19.348Z,24.71
2019-06-07T19:10:46.446Z,24.57
2019-06-07T19:13:13.564Z,24.44
2019-06-07T19:15:43.289Z,24.35
2019-06-07T19:18:29.034Z,24.22
2019-06-07T19:20:56.497Z,24.10
2019-06-07T19:23:51.757Z,24.02
2019-06-07T19:26:58.998Z,23.92
2019-06-07T19:29:26.084Z,23.80
2019-06-07T19:31:53.402Z,23.67
2019-06-07T19:34:20.456Z,23.56
2019-06-07T19:36:48.990Z,23.53
2019-06-07T19:39:36.138Z,23.45
2019-06-07T19:42:44.072Z,23.34
2019-06-07T19:48:54.530Z,23.21
2019-06-07T19:54:25.345Z,22.94
2019-06-07T19:56:53.410Z,22.77
2019-06-07T19:59:41.139Z,22.67
2019-06-07T20:02:08.218Z,22.58
2019-06-07T20:04:35.295Z,22.46
2019-06-07T20:07:03.949Z,22.33
2019-06-07T20:09:31.652Z,22.27
2019-06-07T20:11:58.713Z,22.18
2019-06-07T20:14:25.808Z,22.07
2019-06-07T20:16:53.332Z,21.98
2019-06-07T20:19:20.436Z,21.89
2019-06-07T20:21:47.496Z,21.78
2019-06-07T20:24:26.830Z,21.70
2019-06-07T20:26:43.557Z,21.65
2019-06-07T20:29:25.392Z,21.60
2019-06-07T20:31:39.604Z,21.57
2019-06-07T20:34:06.685Z,21.53
2019-06-07T20:36:33.780Z,21.45
2019-06-07T20:39:02.159Z,21.36
2019-06-07T20:41:29.245Z,21.24
2019-06-07T20:43:57.553Z,21.19
2019-06-07T20:46:47.299Z,21.11
2019-06-07T20:49:14.376Z,21.05
2019-06-07T20:51:41.440Z,21.00
2019-06-07T20:54:09.100Z,20.95
2019-06-07T20:56:36.310Z,20.87
2019-06-07T20:59:04.771Z,20.83
2019-06-07T21:01:31.861Z,20.77
2019-06-07T21:03:59.033Z,20.77
2019-06-07T21:06:26.098Z,20.73
2019-06-07T21:08:53.179Z,20.71
2019-06-07T21:11:20.266Z,20.66
2019-06-07T21:13:47.358Z,20.61
2019-06-07T21:16:14.427Z,20.54
2019-06-07T21:18:41.494Z,20.52
2019-06-07T21:21:08.664Z,20.44
2019-06-07T21:23:35.768Z,20.34
2019-06-07T21:29:07.068Z,20.27
2019-06-07T21:31:57.674Z,20.23
2019-06-07T21:34:24.801Z,20.15
2019-06-07T21:36:51.867Z,20.10
2019-06-07T21:39:18.914Z,20.08
2019-06-07T21:41:46.002Z,20.13
2019-06-07T21:44:13.124Z,20.29
2019-06-07T21:46:40.184Z,20.43
2019-06-07T21:49:08.479Z,20.56
2019-06-07T21:51:35.576Z,20.79
2019-06-07T21:54:06.288Z,20.99
2019-06-07T21:56:31.646Z,21.25
2019-06-07T21:58:58.714Z,21.39
2019-06-07T22:01:27.215Z,21.62
2019-06-07T22:03:54.323Z,21.88
2019-06-07T22:06:21.380Z,22.08
2019-06-07T22:08:48.480Z,22.22
2019-06-07T22:11:15.553Z,22.38
2019-06-07T22:13:42.609Z,22.41
2019-06-07T22:16:24.528Z,22.41
2019-06-07T22:18:38.662Z,22.40
2019-06-07T22:21:06.391Z,22.32
2019-06-07T22:23:53.223Z,22.23
2019-06-07T22:26:20.275Z,22.17
2019-06-07T22:28:47.356Z,21.89
2019-06-07T22:31:14.949Z,21.51
2019-06-07T22:33:42.210Z,21.03
2019-06-07T22:36:09.266Z,20.36
2019-06-07T22:38:36.347Z,19.97
2019-06-07T22:41:03.427Z,19.58
2019-06-07T22:43:30.535Z,19.19
2019-06-07T22:45:57.602Z,18.93
2019-06-07T22:48:24.699Z,18.57
2019-06-07T22:50:51.755Z,18.42
2019-06-07T22:53:18.861Z,18.24
2019-06-07T22:55:50.158Z,17.95
2019-06-07T22:58:18.918Z,17.71
2019-06-07T23:00:46.074Z,17.51
2019-06-07T23:03:14.892Z,17.15
2019-06-07T23:05:42.149Z,16.94
2019-06-07T23:08:09.193Z,16.83
2019-06-07T23:10:36.234Z,16.51
2019-06-07T23:13:03.558Z,16.54
2019-06-07T23:15:30.604Z,16.36
2019-06-07T23:17:57.650Z,16.23
2019-06-07T23:20:24.694Z,16.21
2019-06-07T23:22:51.837Z,16.17
2019-06-07T23:25:22.935Z,16.13
2019-06-07T23:28:14.358Z,16.07
2019-06-07T23:31:01.264Z,16.05
2019-06-07T23:33:28.361Z,15.87
2019-06-07T23:35:55.437Z,15.90
2019-06-07T23:38:22.488Z,15.89
2019-06-07T23:40:49.544Z,15.79
2019-06-07T23:43:17.564Z,15.72
2019-06-07T23:45:44.699Z,15.68
2019-06-07T23:48:11.753Z,15.65
2019-06-07T23:50:38.862Z,15.55
2019-06-07T23:53:05.930Z,15.53
2019-06-07T23:55:33.003Z,15.51
2019-06-07T23:58:00.104Z,15.39
